CST4 weather

Sorel-Tracy/Air Nature Inc. (Heli)
Quebec, Canada

Public forecast

Using degrees Celsius for public forecast. Weather courtesy of forecast.io.

METAR (pilot weather report)

Closest report is Trois-Rivières Airport, 26.5 nm (49.1 km) NE. Retrieved 2019/07/19 16:29 UTC (0 seconds ago):

CYRQ 191629Z AUTO 22010G18KT 9SM BKN015 26/22 A2969 RMK SLP054 DENSITY ALT 1700FT

TAF (pilot weather forecast)

Closest forecast is Trois-Rivières Airport, 26.5 nm (49.1 km) NE. Retrieved 2019/07/19 14:00 UTC (2 hours ago):

TAF CYRQ 191339Z 1914/2002 22005KT P6SM OVC050 TEMPO 1914/1916 OVC010 FM191600 22012G22KT P6SM BKN030 TEMPO 1916/1918 BKN020 FM191800 23010G20KT P6SM -SHRA BKN040 TEMPO 1920/1924 P6SM VCTS BKN020CB RMK FCST BASED ON AUTO OBS. NXT FCST BY 192000Z